sensor_id;sensor_type;location;lat;lon;timestamp;P1;durP1;ratioP1;P2;durP2;ratioP2
27533;SDS011;14973;51.460;7.008;2022-09-27T00:02:15;18.98;;;5.78;;
27533;SDS011;14973;51.460;7.008;2022-09-27T00:04:40;17.02;;;5.03;;
27533;SDS011;14973;51.460;7.008;2022-09-27T00:07:06;14.90;;;5.38;;
27533;SDS011;14973;51.460;7.008;2022-09-27T00:09:32;19.45;;;6.15;;
27533;SDS011;14973;51.460;7.008;2022-09-27T00:11:57;23.30;;;6.78;;
27533;SDS011;14973;51.460;7.008;2022-09-27T00:14:23;13.82;;;6.60;;
27533;SDS011;14973;51.460;7.008;2022-09-27T00:16:49;15.40;;;5.95;;
27533;SDS011;14973;51.460;7.008;2022-09-27T00:19:18;14.38;;;6.32;;
27533;SDS011;14973;51.460;7.008;2022-09-27T00:21:46;18.85;;;5.07;;
27533;SDS011;14973;51.460;7.008;2022-09-27T00:24:13;14.55;;;3.58;;
27533;SDS011;14973;51.460;7.008;2022-09-27T00:26:39;13.30;;;3.25;;
27533;SDS011;14973;51.460;7.008;2022-09-27T00:29:05;13.40;;;2.72;;
27533;SDS011;14973;51.460;7.008;2022-09-27T00:31:31;12.65;;;2.85;;
27533;SDS011;14973;51.460;7.008;2022-09-27T00:34:00;12.98;;;3.05;;
27533;SDS011;14973;51.460;7.008;2022-09-27T00:36:26;15.82;;;3.60;;
27533;SDS011;14973;51.460;7.008;2022-09-27T00:38:53;17.27;;;4.10;;
27533;SDS011;14973;51.460;7.008;2022-09-27T00:41:29;13.07;;;4.72;;
27533;SDS011;14973;51.460;7.008;2022-09-27T00:43:58;22.90;;;4.53;;
27533;SDS011;14973;51.460;7.008;2022-09-27T00:51:44;22.50;;;7.20;;
27533;SDS011;14973;51.460;7.008;2022-09-27T00:54:15;28.90;;;9.43;;
27533;SDS011;14973;51.460;7.008;2022-09-27T00:56:43;30.38;;;9.65;;
27533;SDS011;14973;51.460;7.008;2022-09-27T00:59:14;28.02;;;11.00;;
27533;SDS011;14973;51.460;7.008;2022-09-27T01:01:40;26.20;;;10.25;;
27533;SDS011;14973;51.460;7.008;2022-09-27T01:04:09;25.55;;;10.30;;
27533;SDS011;14973;51.460;7.008;2022-09-27T01:06:37;25.10;;;11.35;;
27533;SDS011;14973;51.460;7.008;2022-09-27T01:09:04;37.65;;;11.52;;
27533;SDS011;14973;51.460;7.008;2022-09-27T04:51:36;21.90;;;9.07;;
27533;SDS011;14973;51.460;7.008;2022-09-27T04:54:01;24.88;;;9.02;;
27533;SDS011;14973;51.460;7.008;2022-09-27T04:56:27;20.27;;;9.43;;
27533;SDS011;14973;51.460;7.008;2022-09-27T04:58:52;15.45;;;9.15;;
27533;SDS011;14973;51.460;7.008;2022-09-27T05:01:18;21.05;;;9.10;;
27533;SDS011;14973;51.460;7.008;2022-09-27T05:03:44;19.08;;;8.52;;
27533;SDS011;14973;51.460;7.008;2022-09-27T05:06:09;25.00;;;8.80;;
27533;SDS011;14973;51.460;7.008;2022-09-27T05:08:35;19.40;;;8.10;;
27533;SDS011;14973;51.460;7.008;2022-09-27T05:11:00;15.18;;;6.85;;
27533;SDS011;14973;51.460;7.008;2022-09-27T05:13:26;14.85;;;7.03;;
27533;SDS011;14973;51.460;7.008;2022-09-27T05:15:52;19.58;;;6.43;;
27533;SDS011;14973;51.460;7.008;2022-09-27T05:18:17;19.00;;;6.05;;
27533;SDS011;14973;51.460;7.008;2022-09-27T05:20:43;17.42;;;5.78;;
27533;SDS011;14973;51.460;7.008;2022-09-27T05:23:09;16.90;;;4.80;;
27533;SDS011;14973;51.460;7.008;2022-09-27T05:25:35;12.68;;;4.70;;
27533;SDS011;14973;51.460;7.008;2022-09-27T05:28:01;17.13;;;3.97;;
27533;SDS011;14973;51.460;7.008;2022-09-27T05:30:27;20.60;;;4.57;;
27533;SDS011;14973;51.460;7.008;2022-09-27T05:32:52;19.48;;;3.83;;
27533;SDS011;14973;51.460;7.008;2022-09-27T05:35:19;16.13;;;3.42;;
27533;SDS011;14973;51.460;7.008;2022-09-27T05:37:55;18.50;;;4.18;;
27533;SDS011;14973;51.460;7.008;2022-09-27T05:40:23;15.88;;;3.92;;
27533;SDS011;14973;51.460;7.008;2022-09-27T05:42:52;13.75;;;3.30;;
27533;SDS011;14973;51.460;7.008;2022-09-27T05:45:19;17.52;;;3.65;;
27533;SDS011;14973;51.460;7.008;2022-09-27T05:47:56;14.40;;;3.88;;
27533;SDS011;14973;51.460;7.008;2022-09-27T05:50:23;15.43;;;3.00;;
27533;SDS011;14973;51.460;7.008;2022-09-27T05:52:50;14.38;;;2.97;;
27533;SDS011;14973;51.460;7.008;2022-09-27T05:55:16;11.32;;;3.03;;
27533;SDS011;14973;51.460;7.008;2022-09-27T05:57:52;9.05;;;2.35;;
27533;SDS011;14973;51.460;7.008;2022-09-27T06:00:19;6.47;;;2.60;;
27533;SDS011;14973;51.460;7.008;2022-09-27T06:02:51;8.40;;;3.03;;
27533;SDS011;14973;51.460;7.008;2022-09-27T06:05:25;18.30;;;4.13;;
27533;SDS011;14973;51.460;7.008;2022-09-27T06:07:53;10.95;;;3.58;;
27533;SDS011;14973;51.460;7.008;2022-09-27T06:10:26;15.27;;;3.50;;
27533;SDS011;14973;51.460;7.008;2022-09-27T06:12:52;11.32;;;3.22;;
27533;SDS011;14973;51.460;7.008;2022-09-27T06:15:19;11.63;;;3.03;;
27533;SDS011;14973;51.460;7.008;2022-09-27T06:17:45;13.10;;;2.47;;
27533;SDS011;14973;51.460;7.008;2022-09-27T06:20:10;20.73;;;3.67;;
27533;SDS011;14973;51.460;7.008;2022-09-27T06:22:37;11.95;;;3.20;;
27533;SDS011;14973;51.460;7.008;2022-09-27T06:25:03;14.65;;;3.65;;
27533;SDS011;14973;51.460;7.008;2022-09-27T06:27:29;8.07;;;2.47;;
27533;SDS011;14973;51.460;7.008;2022-09-27T06:29:55;13.50;;;3.33;;
27533;SDS011;14973;51.460;7.008;2022-09-27T06:32:21;10.32;;;3.53;;
27533;SDS011;14973;51.460;7.008;2022-09-27T06:34:47;12.18;;;2.97;;
27533;SDS011;14973;51.460;7.008;2022-09-27T06:37:12;7.57;;;2.30;;
27533;SDS011;14973;51.460;7.008;2022-09-27T06:39:39;8.55;;;2.03;;
27533;SDS011;14973;51.460;7.008;2022-09-27T06:42:05;8.38;;;2.00;;
27533;SDS011;14973;51.460;7.008;2022-09-27T06:44:31;8.77;;;1.70;;
27533;SDS011;14973;51.460;7.008;2022-09-27T06:46:57;7.85;;;1.65;;
27533;SDS011;14973;51.460;7.008;2022-09-27T06:49:22;5.75;;;1.55;;
27533;SDS011;14973;51.460;7.008;2022-09-27T06:51:49;6.40;;;1.67;;
27533;SDS011;14973;51.460;7.008;2022-09-27T06:54:16;11.32;;;2.38;;
27533;SDS011;14973;51.460;7.008;2022-09-27T06:56:42;15.05;;;2.47;;
27533;SDS011;14973;51.460;7.008;2022-09-27T06:59:11;13.80;;;4.68;;
27533;SDS011;14973;51.460;7.008;2022-09-27T07:01:55;5.43;;;2.15;;
27533;SDS011;14973;51.460;7.008;2022-09-27T07:04:20;10.07;;;3.03;;
27533;SDS011;14973;51.460;7.008;2022-09-27T07:06:46;6.78;;;1.98;;
27533;SDS011;14973;51.460;7.008;2022-09-27T07:09:12;7.30;;;2.58;;
27533;SDS011;14973;51.460;7.008;2022-09-27T07:11:38;12.65;;;2.10;;
27533;SDS011;14973;51.460;7.008;2022-09-27T07:14:04;9.50;;;2.20;;
27533;SDS011;14973;51.460;7.008;2022-09-27T07:16:30;7.13;;;1.70;;
27533;SDS011;14973;51.460;7.008;2022-09-27T07:18:58;9.23;;;2.10;;
27533;SDS011;14973;51.460;7.008;2022-09-27T07:21:24;7.53;;;1.80;;
27533;SDS011;14973;51.460;7.008;2022-09-27T07:23:50;8.15;;;1.73;;
27533;SDS011;14973;51.460;7.008;2022-09-27T07:26:16;38.17;;;14.73;;
27533;SDS011;14973;51.460;7.008;2022-09-27T07:28:42;7.57;;;2.30;;
27533;SDS011;14973;51.460;7.008;2022-09-27T07:31:08;7.75;;;2.00;;
27533;SDS011;14973;51.460;7.008;2022-09-27T07:33:34;6.65;;;2.25;;
27533;SDS011;14973;51.460;7.008;2022-09-27T07:36:05;12.43;;;1.88;;
27533;SDS011;14973;51.460;7.008;2022-09-27T07:38:34;9.00;;;1.98;;
27533;SDS011;14973;51.460;7.008;2022-09-27T07:41:07;7.97;;;1.55;;
27533;SDS011;14973;51.460;7.008;2022-09-27T07:43:34;6.10;;;1.40;;
27533;SDS011;14973;51.460;7.008;2022-09-27T07:45:59;4.85;;;1.40;;
27533;SDS011;14973;51.460;7.008;2022-09-27T07:48:25;8.93;;;1.40;;
27533;SDS011;14973;51.460;7.008;2022-09-27T07:50:51;14.80;;;3.80;;
27533;SDS011;14973;51.460;7.008;2022-09-27T07:53:17;16.50;;;4.43;;
27533;SDS011;14973;51.460;7.008;2022-09-27T07:55:42;5.63;;;2.25;;
27533;SDS011;14973;51.460;7.008;2022-09-27T07:58:09;5.50;;;2.00;;
27533;SDS011;14973;51.460;7.008;2022-09-27T08:00:36;3.65;;;1.63;;
27533;SDS011;14973;51.460;7.008;2022-09-27T08:03:04;8.35;;;2.17;;
27533;SDS011;14973;51.460;7.008;2022-09-27T08:05:40;4.88;;;1.90;;
27533;SDS011;14973;51.460;7.008;2022-09-27T08:08:11;6.65;;;2.30;;
27533;SDS011;14973;51.460;7.008;2022-09-27T08:10:37;7.25;;;1.90;;
27533;SDS011;14973;51.460;7.008;2022-09-27T08:13:08;6.57;;;2.03;;
27533;SDS011;14973;51.460;7.008;2022-09-27T08:15:34;13.38;;;2.03;;
27533;SDS011;14973;51.460;7.008;2022-09-27T08:18:00;7.25;;;2.00;;
27533;SDS011;14973;51.460;7.008;2022-09-27T08:20:26;6.05;;;1.83;;
27533;SDS011;14973;51.460;7.008;2022-09-27T08:22:52;6.47;;;2.20;;
27533;SDS011;14973;51.460;7.008;2022-09-27T08:25:17;5.53;;;1.77;;
27533;SDS011;14973;51.460;7.008;2022-09-27T08:27:43;8.02;;;1.67;;
27533;SDS011;14973;51.460;7.008;2022-09-27T08:30:18;9.60;;;1.55;;
27533;SDS011;14973;51.460;7.008;2022-09-27T08:32:43;3.78;;;1.20;;
27533;SDS011;14973;51.460;7.008;2022-09-27T08:35:09;6.00;;;1.50;;
27533;SDS011;14973;51.460;7.008;2022-09-27T08:37:35;9.50;;;1.83;;
27533;SDS011;14973;51.460;7.008;2022-09-27T08:40:01;6.57;;;1.65;;
27533;SDS011;14973;51.460;7.008;2022-09-27T08:42:45;8.57;;;1.60;;
27533;SDS011;14973;51.460;7.008;2022-09-27T08:45:27;15.38;;;1.92;;
27533;SDS011;14973;51.460;7.008;2022-09-27T08:47:59;7.00;;;1.33;;
27533;SDS011;14973;51.460;7.008;2022-09-27T08:50:28;8.40;;;3.28;;
27533;SDS011;14973;51.460;7.008;2022-09-27T08:53:11;6.45;;;1.77;;
27533;SDS011;14973;51.460;7.008;2022-09-27T08:55:43;8.82;;;1.40;;
27533;SDS011;14973;51.460;7.008;2022-09-27T09:00:55;4.40;;;1.63;;
27533;SDS011;14973;51.460;7.008;2022-09-27T09:03:23;4.53;;;1.35;;
27533;SDS011;14973;51.460;7.008;2022-09-27T09:14:19;11.63;;;2.28;;
27533;SDS011;14973;51.460;7.008;2022-09-27T09:16:58;6.18;;;1.25;;
27533;SDS011;14973;51.460;7.008;2022-09-27T09:36:49;6.45;;;1.80;;
27533;SDS011;14973;51.460;7.008;2022-09-27T09:39:21;3.85;;;1.95;;
27533;SDS011;14973;51.460;7.008;2022-09-27T09:42:13;4.50;;;1.92;;
27533;SDS011;14973;51.460;7.008;2022-09-27T09:50:35;4.65;;;1.65;;
27533;SDS011;14973;51.460;7.008;2022-09-27T09:55:55;4.10;;;1.73;;
27533;SDS011;14973;51.460;7.008;2022-09-27T09:58:39;5.80;;;1.90;;
27533;SDS011;14973;51.460;7.008;2022-09-27T10:01:23;7.53;;;2.47;;
27533;SDS011;14973;51.460;7.008;2022-09-27T10:03:52;5.18;;;1.70;;
27533;SDS011;14973;51.460;7.008;2022-09-27T10:06:20;4.45;;;1.90;;
27533;SDS011;14973;51.460;7.008;2022-09-27T10:08:46;3.97;;;1.90;;
27533;SDS011;14973;51.460;7.008;2022-09-27T10:11:21;7.53;;;2.20;;
27533;SDS011;14973;51.460;7.008;2022-09-27T10:13:47;4.00;;;2.08;;
27533;SDS011;14973;51.460;7.008;2022-09-27T10:16:14;6.57;;;2.30;;
27533;SDS011;14973;51.460;7.008;2022-09-27T10:18:42;9.02;;;2.72;;
27533;SDS011;14973;51.460;7.008;2022-09-27T10:21:11;6.90;;;2.55;;
27533;SDS011;14973;51.460;7.008;2022-09-27T10:26:30;3.25;;;2.10;;
27533;SDS011;14973;51.460;7.008;2022-09-27T10:28:57;7.45;;;2.60;;
27533;SDS011;14973;51.460;7.008;2022-09-27T10:31:38;5.00;;;2.80;;
27533;SDS011;14973;51.460;7.008;2022-09-27T10:34:15;10.80;;;2.70;;
27533;SDS011;14973;51.460;7.008;2022-09-27T10:36:41;9.07;;;3.33;;
27533;SDS011;14973;51.460;7.008;2022-09-27T10:39:09;9.43;;;2.83;;
27533;SDS011;14973;51.460;7.008;2022-09-27T10:41:47;8.55;;;2.75;;
27533;SDS011;14973;51.460;7.008;2022-09-27T10:46:49;7.10;;;2.50;;
27533;SDS011;14973;51.460;7.008;2022-09-27T10:49:21;4.43;;;2.30;;
27533;SDS011;14973;51.460;7.008;2022-09-27T10:51:56;7.15;;;2.50;;
27533;SDS011;14973;51.460;7.008;2022-09-27T10:54:25;10.05;;;4.35;;
27533;SDS011;14973;51.460;7.008;2022-09-27T10:57:03;7.40;;;2.95;;
27533;SDS011;14973;51.460;7.008;2022-09-27T10:59:39;5.22;;;1.83;;
27533;SDS011;14973;51.460;7.008;2022-09-27T11:02:25;5.00;;;1.98;;
27533;SDS011;14973;51.460;7.008;2022-09-27T11:05:08;8.13;;;1.88;;
27533;SDS011;14973;51.460;7.008;2022-09-27T11:07:56;3.85;;;1.67;;
27533;SDS011;14973;51.460;7.008;2022-09-27T11:10:31;5.57;;;1.70;;
27533;SDS011;14973;51.460;7.008;2022-09-27T11:13:11;10.57;;;1.80;;
27533;SDS011;14973;51.460;7.008;2022-09-27T11:26:40;3.08;;;1.30;;
27533;SDS011;14973;51.460;7.008;2022-09-27T11:29:24;7.07;;;1.95;;
27533;SDS011;14973;51.460;7.008;2022-09-27T11:32:14;3.50;;;2.08;;
27533;SDS011;14973;51.460;7.008;2022-09-27T11:34:48;4.75;;;2.10;;
27533;SDS011;14973;51.460;7.008;2022-09-27T11:40:20;8.75;;;3.30;;
27533;SDS011;14973;51.460;7.008;2022-09-27T12:01:53;7.43;;;2.80;;
27533;SDS011;14973;51.460;7.008;2022-09-27T12:04:29;6.95;;;2.95;;
27533;SDS011;14973;51.460;7.008;2022-09-27T12:09:59;7.15;;;2.97;;
27533;SDS011;14973;51.460;7.008;2022-09-27T12:12:28;17.08;;;3.05;;
27533;SDS011;14973;51.460;7.008;2022-09-27T12:14:59;5.75;;;3.05;;
27533;SDS011;14973;51.460;7.008;2022-09-27T12:17:29;5.63;;;3.22;;
27533;SDS011;14973;51.460;7.008;2022-09-27T12:20:03;14.20;;;6.70;;
27533;SDS011;14973;51.460;7.008;2022-09-27T12:22:37;7.55;;;3.65;;
27533;SDS011;14973;51.460;7.008;2022-09-27T12:25:13;7.75;;;4.00;;
27533;SDS011;14973;51.460;7.008;2022-09-27T12:27:53;9.10;;;3.72;;
27533;SDS011;14973;51.460;7.008;2022-09-27T12:30:23;5.78;;;3.55;;
27533;SDS011;14973;51.460;7.008;2022-09-27T12:32:52;5.78;;;3.45;;
27533;SDS011;14973;51.460;7.008;2022-09-27T12:35:28;4.57;;;3.28;;
27533;SDS011;14973;51.460;7.008;2022-09-27T12:40:51;7.30;;;3.85;;
27533;SDS011;14973;51.460;7.008;2022-09-27T12:51:37;6.57;;;4.35;;
27533;SDS011;14973;51.460;7.008;2022-09-27T13:08:12;6.45;;;3.53;;
27533;SDS011;14973;51.460;7.008;2022-09-27T13:13:28;8.38;;;3.90;;
27533;SDS011;14973;51.460;7.008;2022-09-27T13:15:57;7.28;;;3.30;;
27533;SDS011;14973;51.460;7.008;2022-09-27T13:18:48;4.88;;;3.33;;
27533;SDS011;14973;51.460;7.008;2022-09-27T13:26:54;7.03;;;2.90;;
27533;SDS011;14973;51.460;7.008;2022-09-27T13:29:23;2.60;;;1.80;;
27533;SDS011;14973;51.460;7.008;2022-09-27T13:37:32;4.70;;;1.80;;
27533;SDS011;14973;51.460;7.008;2022-09-27T13:42:48;4.28;;;1.70;;
27533;SDS011;14973;51.460;7.008;2022-09-27T13:45:23;4.22;;;1.98;;
27533;SDS011;14973;51.460;7.008;2022-09-27T13:47:53;3.95;;;1.52;;
27533;SDS011;14973;51.460;7.008;2022-09-27T13:53:03;4.80;;;1.48;;
27533;SDS011;14973;51.460;7.008;2022-09-27T13:55:40;4.80;;;2.08;;
27533;SDS011;14973;51.460;7.008;2022-09-27T13:58:26;12.32;;;1.95;;
27533;SDS011;14973;51.460;7.008;2022-09-27T14:00:59;4.10;;;2.03;;
27533;SDS011;14973;51.460;7.008;2022-09-27T14:03:34;5.28;;;2.60;;
27533;SDS011;14973;51.460;7.008;2022-09-27T14:06:25;5.22;;;2.20;;
27533;SDS011;14973;51.460;7.008;2022-09-27T14:08:57;6.32;;;2.20;;
27533;SDS011;14973;51.460;7.008;2022-09-27T14:11:36;3.67;;;1.80;;
27533;SDS011;14973;51.460;7.008;2022-09-27T14:14:06;4.43;;;1.80;;
27533;SDS011;14973;51.460;7.008;2022-09-27T14:16:42;6.00;;;2.08;;
27533;SDS011;14973;51.460;7.008;2022-09-27T14:19:14;3.83;;;1.65;;
27533;SDS011;14973;51.460;7.008;2022-09-27T14:21:42;3.55;;;1.98;;
27533;SDS011;14973;51.460;7.008;2022-09-27T14:30:15;2.67;;;1.25;;
27533;SDS011;14973;51.460;7.008;2022-09-27T14:32:46;3.97;;;1.20;;
27533;SDS011;14973;51.460;7.008;2022-09-27T14:40:28;2.63;;;1.10;;
27533;SDS011;14973;51.460;7.008;2022-09-27T14:42:59;2.35;;;1.35;;
27533;SDS011;14973;51.460;7.008;2022-09-27T14:45:30;3.05;;;1.02;;
27533;SDS011;14973;51.460;7.008;2022-09-27T14:48:26;2.67;;;1.38;;
27533;SDS011;14973;51.460;7.008;2022-09-27T14:53:44;8.20;;;1.30;;
27533;SDS011;14973;51.460;7.008;2022-09-27T14:56:15;3.40;;;1.23;;
27533;SDS011;14973;51.460;7.008;2022-09-27T14:58:44;5.35;;;1.13;;
27533;SDS011;14973;51.460;7.008;2022-09-27T15:01:17;2.17;;;1.00;;
27533;SDS011;14973;51.460;7.008;2022-09-27T15:03:44;6.45;;;1.27;;
27533;SDS011;14973;51.460;7.008;2022-09-27T15:06:12;6.20;;;1.35;;
27533;SDS011;14973;51.460;7.008;2022-09-27T15:08:39;7.38;;;1.70;;
27533;SDS011;14973;51.460;7.008;2022-09-27T15:11:05;3.17;;;1.23;;
27533;SDS011;14973;51.460;7.008;2022-09-27T15:13:32;6.32;;;1.10;;
27533;SDS011;14973;51.460;7.008;2022-09-27T15:16:04;4.28;;;1.15;;
27533;SDS011;14973;51.460;7.008;2022-09-27T15:18:41;9.27;;;1.27;;
27533;SDS011;14973;51.460;7.008;2022-09-27T15:21:12;6.53;;;1.63;;
27533;SDS011;14973;51.460;7.008;2022-09-27T15:23:43;4.45;;;1.35;;
27533;SDS011;14973;51.460;7.008;2022-09-27T15:26:21;11.85;;;1.60;;
27533;SDS011;14973;51.460;7.008;2022-09-27T15:28:50;7.20;;;1.70;;
27533;SDS011;14973;51.460;7.008;2022-09-27T15:31:16;9.93;;;1.63;;
27533;SDS011;14973;51.460;7.008;2022-09-27T15:33:52;5.05;;;1.40;;
27533;SDS011;14973;51.460;7.008;2022-09-27T15:36:41;8.77;;;1.40;;
27533;SDS011;14973;51.460;7.008;2022-09-27T15:39:08;7.53;;;1.60;;
27533;SDS011;14973;51.460;7.008;2022-09-27T15:44:44;6.03;;;1.30;;
27533;SDS011;14973;51.460;7.008;2022-09-27T15:47:36;5.95;;;1.55;;
27533;SDS011;14973;51.460;7.008;2022-09-27T15:55:11;5.35;;;1.33;;
27533;SDS011;14973;51.460;7.008;2022-09-27T15:57:42;9.05;;;1.58;;
27533;SDS011;14973;51.460;7.008;2022-09-27T16:00:10;8.38;;;1.75;;
27533;SDS011;14973;51.460;7.008;2022-09-27T16:02:40;6.78;;;1.90;;
27533;SDS011;14973;51.460;7.008;2022-09-27T16:05:06;3.65;;;1.33;;
27533;SDS011;14973;51.460;7.008;2022-09-27T16:07:31;8.52;;;1.48;;
27533;SDS011;14973;51.460;7.008;2022-09-27T16:09:57;6.97;;;1.23;;
27533;SDS011;14973;51.460;7.008;2022-09-27T16:12:23;5.28;;;1.33;;
27533;SDS011;14973;51.460;7.008;2022-09-27T16:14:49;6.40;;;1.80;;
27533;SDS011;14973;51.460;7.008;2022-09-27T16:17:14;7.03;;;1.88;;
27533;SDS011;14973;51.460;7.008;2022-09-27T16:19:40;6.63;;;1.88;;
27533;SDS011;14973;51.460;7.008;2022-09-27T16:22:06;7.07;;;2.10;;
27533;SDS011;14973;51.460;7.008;2022-09-27T16:24:32;6.95;;;2.40;;
27533;SDS011;14973;51.460;7.008;2022-09-27T16:26:58;7.78;;;2.58;;
27533;SDS011;14973;51.460;7.008;2022-09-27T16:29:23;8.65;;;3.10;;
27533;SDS011;14973;51.460;7.008;2022-09-27T16:31:49;6.22;;;2.60;;
27533;SDS011;14973;51.460;7.008;2022-09-27T16:34:15;9.57;;;2.72;;
27533;SDS011;14973;51.460;7.008;2022-09-27T16:36:41;4.72;;;2.28;;
27533;SDS011;14973;51.460;7.008;2022-09-27T16:39:08;8.05;;;2.97;;
27533;SDS011;14973;51.460;7.008;2022-09-27T16:41:36;4.85;;;2.00;;
27533;SDS011;14973;51.460;7.008;2022-09-27T16:44:11;7.10;;;2.53;;
27533;SDS011;14973;51.460;7.008;2022-09-27T16:46:41;7.00;;;2.60;;
27533;SDS011;14973;51.460;7.008;2022-09-27T16:49:10;11.25;;;2.45;;
27533;SDS011;14973;51.460;7.008;2022-09-27T16:51:56;6.32;;;2.28;;
27533;SDS011;14973;51.460;7.008;2022-09-27T16:54:26;6.15;;;1.88;;
27533;SDS011;14973;51.460;7.008;2022-09-27T16:56:53;14.70;;;6.97;;
27533;SDS011;14973;51.460;7.008;2022-09-27T16:59:20;6.35;;;2.80;;
27533;SDS011;14973;51.460;7.008;2022-09-27T17:01:48;6.72;;;2.20;;
27533;SDS011;14973;51.460;7.008;2022-09-27T17:04:14;5.55;;;2.35;;
27533;SDS011;14973;51.460;7.008;2022-09-27T17:06:40;3.22;;;1.95;;
27533;SDS011;14973;51.460;7.008;2022-09-27T17:09:06;4.53;;;2.20;;
27533;SDS011;14973;51.460;7.008;2022-09-27T17:11:32;5.18;;;1.80;;
27533;SDS011;14973;51.460;7.008;2022-09-27T17:13:58;4.95;;;1.77;;
27533;SDS011;14973;51.460;7.008;2022-09-27T17:16:24;3.28;;;1.60;;
27533;SDS011;14973;51.460;7.008;2022-09-27T17:18:52;6.40;;;2.00;;
27533;SDS011;14973;51.460;7.008;2022-09-27T17:21:18;39.38;;;17.92;;
27533;SDS011;14973;51.460;7.008;2022-09-27T17:23:44;9.90;;;4.15;;
27533;SDS011;14973;51.460;7.008;2022-09-27T17:26:14;7.60;;;2.08;;
27533;SDS011;14973;51.460;7.008;2022-09-27T17:28:44;6.82;;;2.20;;
27533;SDS011;14973;51.460;7.008;2022-09-27T17:31:11;3.42;;;1.83;;
27533;SDS011;14973;51.460;7.008;2022-09-27T17:33:40;5.95;;;1.98;;
27533;SDS011;14973;51.460;7.008;2022-09-27T17:36:19;5.82;;;1.92;;
27533;SDS011;14973;51.460;7.008;2022-09-27T17:38:46;8.50;;;1.92;;
27533;SDS011;14973;51.460;7.008;2022-09-27T17:41:14;6.55;;;2.00;;
27533;SDS011;14973;51.460;7.008;2022-09-27T17:43:42;6.97;;;2.60;;
27533;SDS011;14973;51.460;7.008;2022-09-27T17:46:14;7.22;;;2.13;;
27533;SDS011;14973;51.460;7.008;2022-09-27T17:48:41;6.28;;;2.33;;
27533;SDS011;14973;51.460;7.008;2022-09-27T17:51:25;7.93;;;1.98;;
27533;SDS011;14973;51.460;7.008;2022-09-27T17:53:51;6.75;;;1.80;;
27533;SDS011;14973;51.460;7.008;2022-09-27T17:56:17;7.40;;;2.20;;
27533;SDS011;14973;51.460;7.008;2022-09-27T17:58:46;8.27;;;2.90;;
27533;SDS011;14973;51.460;7.008;2022-09-27T18:01:13;9.73;;;2.15;;
27533;SDS011;14973;51.460;7.008;2022-09-27T18:03:40;7.22;;;2.15;;
27533;SDS011;14973;51.460;7.008;2022-09-27T18:06:06;3.03;;;1.80;;
27533;SDS011;14973;51.460;7.008;2022-09-27T18:08:32;8.07;;;2.28;;
27533;SDS011;14973;51.460;7.008;2022-09-27T18:13:30;5.05;;;2.10;;
27533;SDS011;14973;51.460;7.008;2022-09-27T18:16:02;9.95;;;2.40;;
27533;SDS011;14973;51.460;7.008;2022-09-27T18:18:29;6.93;;;2.30;;
27533;SDS011;14973;51.460;7.008;2022-09-27T18:20:59;7.10;;;3.08;;
27533;SDS011;14973;51.460;7.008;2022-09-27T18:23:27;7.68;;;2.70;;
27533;SDS011;14973;51.460;7.008;2022-09-27T18:25:54;7.43;;;2.35;;
27533;SDS011;14973;51.460;7.008;2022-09-27T18:28:25;8.60;;;2.53;;
27533;SDS011;14973;51.460;7.008;2022-09-27T18:30:52;6.50;;;2.40;;
27533;SDS011;14973;51.460;7.008;2022-09-27T18:33:18;12.10;;;2.78;;
27533;SDS011;14973;51.460;7.008;2022-09-27T18:35:44;7.00;;;2.65;;
27533;SDS011;14973;51.460;7.008;2022-09-27T18:38:10;12.63;;;4.63;;
27533;SDS011;14973;51.460;7.008;2022-09-27T18:40:35;10.15;;;3.25;;
27533;SDS011;14973;51.460;7.008;2022-09-27T18:43:01;12.00;;;4.68;;
27533;SDS011;14973;51.460;7.008;2022-09-27T18:45:27;9.48;;;3.13;;
27533;SDS011;14973;51.460;7.008;2022-09-27T18:47:52;7.90;;;2.97;;
27533;SDS011;14973;51.460;7.008;2022-09-27T18:50:18;9.70;;;3.00;;
27533;SDS011;14973;51.460;7.008;2022-09-27T18:52:44;9.73;;;3.40;;
27533;SDS011;14973;51.460;7.008;2022-09-27T18:55:10;12.48;;;3.38;;
27533;SDS011;14973;51.460;7.008;2022-09-27T18:57:35;15.93;;;3.90;;
27533;SDS011;14973;51.460;7.008;2022-09-27T19:00:02;9.23;;;3.33;;
27533;SDS011;14973;51.460;7.008;2022-09-27T19:02:28;8.85;;;3.33;;
27533;SDS011;14973;51.460;7.008;2022-09-27T19:04:56;13.27;;;4.00;;
27533;SDS011;14973;51.460;7.008;2022-09-27T19:07:21;8.65;;;3.30;;
27533;SDS011;14973;51.460;7.008;2022-09-27T19:09:47;11.32;;;3.55;;
27533;SDS011;14973;51.460;7.008;2022-09-27T19:12:13;9.20;;;3.65;;
27533;SDS011;14973;51.460;7.008;2022-09-27T19:14:38;14.05;;;4.18;;
27533;SDS011;14973;51.460;7.008;2022-09-27T19:17:04;11.73;;;4.03;;
27533;SDS011;14973;51.460;7.008;2022-09-27T19:19:29;15.90;;;4.43;;
27533;SDS011;14973;51.460;7.008;2022-09-27T19:21:55;12.80;;;3.92;;
27533;SDS011;14973;51.460;7.008;2022-09-27T19:24:21;10.45;;;3.67;;
27533;SDS011;14973;51.460;7.008;2022-09-27T19:26:46;11.55;;;4.00;;
27533;SDS011;14973;51.460;7.008;2022-09-27T19:29:13;8.90;;;3.72;;
27533;SDS011;14973;51.460;7.008;2022-09-27T19:31:39;12.65;;;3.90;;
27533;SDS011;14973;51.460;7.008;2022-09-27T19:34:06;12.55;;;4.38;;
27533;SDS011;14973;51.460;7.008;2022-09-27T19:36:31;11.27;;;4.35;;
27533;SDS011;14973;51.460;7.008;2022-09-27T19:38:57;10.15;;;4.50;;
27533;SDS011;14973;51.460;7.008;2022-09-27T19:41:23;11.30;;;5.10;;
27533;SDS011;14973;51.460;7.008;2022-09-27T19:43:52;19.40;;;5.70;;
27533;SDS011;14973;51.460;7.008;2022-09-27T19:46:19;11.77;;;4.93;;
27533;SDS011;14973;51.460;7.008;2022-09-27T19:48:46;13.32;;;6.15;;
27533;SDS011;14973;51.460;7.008;2022-09-27T19:51:16;12.27;;;5.55;;
27533;SDS011;14973;51.460;7.008;2022-09-27T19:53:50;19.15;;;6.15;;
27533;SDS011;14973;51.460;7.008;2022-09-27T19:56:16;13.10;;;5.78;;
27533;SDS011;14973;51.460;7.008;2022-09-27T19:58:43;15.20;;;6.05;;
27533;SDS011;14973;51.460;7.008;2022-09-27T20:01:10;19.50;;;6.22;;
27533;SDS011;14973;51.460;7.008;2022-09-27T20:03:38;11.63;;;5.72;;
27533;SDS011;14973;51.460;7.008;2022-09-27T20:06:06;16.70;;;6.63;;
27533;SDS011;14973;51.460;7.008;2022-09-27T20:08:33;13.05;;;6.03;;
27533;SDS011;14973;51.460;7.008;2022-09-27T20:10:59;20.38;;;6.68;;
27533;SDS011;14973;51.460;7.008;2022-09-27T20:13:27;16.42;;;7.07;;
27533;SDS011;14973;51.460;7.008;2022-09-27T20:18:33;12.38;;;6.90;;
27533;SDS011;14973;51.460;7.008;2022-09-27T20:21:02;15.45;;;7.93;;
27533;SDS011;14973;51.460;7.008;2022-09-27T20:23:29;14.93;;;7.32;;
27533;SDS011;14973;51.460;7.008;2022-09-27T20:28:26;17.48;;;8.63;;
27533;SDS011;14973;51.460;7.008;2022-09-27T20:30:59;21.63;;;8.80;;
27533;SDS011;14973;51.460;7.008;2022-09-27T20:33:26;14.85;;;7.68;;
27533;SDS011;14973;51.460;7.008;2022-09-27T20:36:34;20.77;;;8.40;;
27533;SDS011;14973;51.460;7.008;2022-09-27T20:39:05;15.73;;;7.97;;
27533;SDS011;14973;51.460;7.008;2022-09-27T20:41:40;18.08;;;8.00;;
27533;SDS011;14973;51.460;7.008;2022-09-27T20:44:07;19.17;;;8.80;;
27533;SDS011;14973;51.460;7.008;2022-09-27T20:46:35;20.10;;;9.18;;
27533;SDS011;14973;51.460;7.008;2022-09-27T20:49:03;27.83;;;10.75;;
27533;SDS011;14973;51.460;7.008;2022-09-27T20:51:31;19.65;;;10.40;;
27533;SDS011;14973;51.460;7.008;2022-09-27T20:53:58;28.08;;;12.35;;
27533;SDS011;14973;51.460;7.008;2022-09-27T20:56:25;28.17;;;11.82;;
27533;SDS011;14973;51.460;7.008;2022-09-27T20:59:04;26.20;;;13.18;;
27533;SDS011;14973;51.460;7.008;2022-09-27T21:01:32;37.03;;;14.20;;
27533;SDS011;14973;51.460;7.008;2022-09-27T21:03:59;34.28;;;14.27;;
27533;SDS011;14973;51.460;7.008;2022-09-27T21:06:29;27.13;;;13.85;;
27533;SDS011;14973;51.460;7.008;2022-09-27T21:08:56;35.60;;;16.40;;
27533;SDS011;14973;51.460;7.008;2022-09-27T21:11:23;30.00;;;12.57;;
27533;SDS011;14973;51.460;7.008;2022-09-27T21:13:50;24.25;;;12.20;;